createdAt,value
2022-08-19T00:00:45.017Z,15.52
2022-08-19T00:03:11.483Z,15.46
2022-08-19T00:05:38.124Z,15.40
2022-08-19T00:08:04.574Z,15.44
2022-08-19T00:10:31.112Z,15.38
2022-08-19T00:12:57.527Z,15.42
2022-08-19T00:15:24.065Z,15.43
2022-08-19T00:17:50.625Z,15.37
2022-08-19T00:20:20.549Z,15.40
2022-08-19T00:22:48.032Z,15.37
2022-08-19T00:25:15.765Z,15.37
2022-08-19T00:27:42.481Z,15.37
2022-08-19T00:30:09.758Z,15.36
2022-08-19T00:32:36.268Z,15.35
2022-08-19T00:35:02.792Z,15.29
2022-08-19T00:37:29.349Z,15.26
2022-08-19T00:39:56.012Z,15.21
2022-08-19T00:42:23.243Z,15.23
2022-08-19T00:44:50.061Z,15.23
2022-08-19T00:47:16.543Z,15.22
2022-08-19T00:49:48.427Z,15.22
2022-08-19T00:52:19.441Z,15.29
2022-08-19T00:54:50.770Z,15.18
2022-08-19T00:57:27.685Z,15.14
2022-08-19T01:00:02.704Z,15.08
2022-08-19T01:02:30.858Z,15.13
2022-08-19T01:04:57.501Z,15.11
2022-08-19T01:07:24.123Z,15.06
2022-08-19T01:09:50.616Z,15.06
2022-08-19T01:12:18.564Z,15.03
2022-08-19T01:14:46.324Z,15.02
2022-08-19T01:17:13.454Z,14.97
2022-08-19T01:19:44.858Z,14.96
2022-08-19T01:22:27.353Z,14.96
2022-08-19T01:24:57.527Z,14.98
2022-08-19T01:27:25.939Z,14.98
2022-08-19T01:29:52.363Z,14.93
2022-08-19T01:32:32.208Z,14.92
2022-08-19T01:35:01.683Z,14.98
2022-08-19T01:37:28.471Z,14.97
2022-08-19T01:39:55.053Z,14.93
2022-08-19T01:42:21.538Z,14.96
2022-08-19T01:44:56.773Z,14.90
2022-08-19T01:47:23.228Z,14.90
2022-08-19T01:49:49.640Z,14.88
2022-08-19T01:52:16.128Z,14.86
2022-08-19T01:54:42.603Z,14.98
2022-08-19T01:57:13.461Z,15.06
2022-08-19T01:59:42.104Z,14.97
2022-08-19T02:02:08.595Z,14.90
2022-08-19T02:04:36.325Z,14.88
2022-08-19T02:07:02.785Z,14.83
2022-08-19T02:09:29.448Z,14.88
2022-08-19T02:11:56.034Z,14.76
2022-08-19T02:14:22.560Z,14.76
2022-08-19T02:16:49.099Z,14.72
2022-08-19T02:19:15.535Z,14.79
2022-08-19T02:21:42.094Z,14.79
2022-08-19T02:24:08.606Z,14.93
2022-08-19T02:26:35.055Z,15.01
2022-08-19T02:29:01.581Z,15.08
2022-08-19T02:31:28.501Z,15.07
2022-08-19T02:33:56.871Z,15.08
2022-08-19T02:36:25.245Z,15.12
2022-08-19T02:38:54.288Z,15.09
2022-08-19T02:41:28.240Z,15.03
2022-08-19T02:44:29.465Z,15.00
2022-08-19T02:46:43.575Z,14.97
2022-08-19T02:49:10.047Z,14.96
2022-08-19T02:51:44.886Z,14.96
2022-08-19T02:54:12.542Z,14.91
2022-08-19T02:56:41.797Z,14.88
2022-08-19T02:59:08.337Z,14.90
2022-08-19T03:01:36.969Z,14.84
2022-08-19T03:04:05.637Z,14.92
2022-08-19T03:06:32.361Z,14.99
2022-08-19T03:08:59.209Z,14.97
2022-08-19T03:11:31.359Z,14.94
2022-08-19T03:13:59.771Z,14.98
2022-08-19T03:16:28.442Z,14.97
2022-08-19T03:18:57.474Z,14.91
2022-08-19T03:21:25.857Z,14.99
2022-08-19T03:23:56.240Z,15.08
2022-08-19T03:26:22.706Z,15.03
2022-08-19T03:28:51.129Z,15.01
2022-08-19T03:31:44.901Z,14.93
2022-08-19T03:34:20.883Z,14.93
2022-08-19T03:36:48.391Z,14.92
2022-08-19T03:39:15.710Z,14.90
2022-08-19T03:41:46.044Z,14.91
2022-08-19T03:44:20.159Z,14.93
2022-08-19T03:46:51.245Z,14.86
2022-08-19T03:49:18.742Z,14.88
2022-08-19T03:51:47.825Z,14.82
2022-08-19T03:54:17.785Z,14.86
2022-08-19T03:56:45.610Z,14.85
2022-08-19T03:59:15.962Z,14.83
2022-08-19T04:01:42.659Z,14.81
2022-08-19T04:04:09.839Z,14.78
2022-08-19T04:06:39.884Z,14.76
2022-08-19T04:09:09.495Z,14.74
2022-08-19T04:11:43.700Z,14.74
2022-08-19T04:14:12.970Z,14.69
2022-08-19T04:16:39.553Z,14.72
2022-08-19T04:19:07.966Z,14.67
2022-08-19T04:21:35.505Z,14.66
2022-08-19T04:24:03.825Z,14.76
2022-08-19T04:26:33.843Z,14.73
2022-08-19T04:29:02.365Z,14.72
2022-08-19T04:31:31.530Z,14.67
2022-08-19T04:34:00.085Z,14.73
2022-08-19T04:36:29.993Z,14.77
2022-08-19T04:38:58.597Z,14.87
2022-08-19T04:41:26.412Z,14.90
2022-08-19T04:43:52.807Z,14.85
2022-08-19T04:46:39.274Z,14.92
2022-08-19T04:49:10.456Z,14.97
2022-08-19T04:51:42.725Z,15.07
2022-08-19T04:54:09.498Z,15.16
2022-08-19T04:56:36.065Z,15.20
2022-08-19T04:59:02.613Z,15.26
2022-08-19T05:01:30.247Z,15.29
2022-08-19T05:03:58.753Z,15.39
2022-08-19T05:06:25.285Z,15.39
2022-08-19T05:08:52.340Z,15.49
2022-08-19T05:11:26.429Z,15.53
2022-08-19T05:13:53.485Z,15.60
2022-08-19T05:16:21.603Z,15.66
2022-08-19T05:18:49.332Z,15.72
2022-08-19T05:21:19.449Z,15.78
2022-08-19T05:23:45.863Z,15.86
2022-08-19T05:26:12.321Z,15.99
2022-08-19T05:28:38.819Z,16.05
2022-08-19T05:31:05.597Z,16.16
2022-08-19T05:33:32.056Z,16.31
2022-08-19T05:35:58.524Z,16.45
2022-08-19T05:38:25.094Z,17.49
2022-08-19T05:40:51.527Z,19.19
2022-08-19T05:43:18.044Z,20.82
2022-08-19T05:45:44.719Z,22.46
2022-08-19T05:48:12.379Z,23.79
2022-08-19T05:50:42.423Z,24.91
2022-08-19T05:53:09.684Z,25.97
2022-08-19T05:55:36.833Z,26.73
2022-08-19T05:58:03.716Z,27.30
2022-08-19T06:00:30.201Z,27.66
2022-08-19T06:02:56.832Z,28.34
2022-08-19T06:05:23.320Z,28.82
2022-08-19T06:07:49.799Z,28.93
2022-08-19T06:10:16.246Z,29.48
2022-08-19T06:12:42.768Z,29.81
2022-08-19T06:15:13.011Z,30.23
2022-08-19T06:17:40.011Z,30.53
2022-08-19T06:20:09.196Z,30.85
2022-08-19T06:22:46.464Z,30.81
2022-08-19T06:25:14.460Z,30.86
2022-08-19T06:27:58.523Z,31.46
2022-08-19T06:30:27.803Z,32.06
2022-08-19T06:32:54.433Z,32.50
2022-08-19T06:35:20.984Z,32.86
2022-08-19T06:37:47.462Z,33.33
2022-08-19T06:40:14.088Z,33.31
2022-08-19T06:42:44.829Z,33.57
2022-08-19T06:45:25.180Z,33.71
2022-08-19T06:48:00.764Z,33.51
2022-08-19T06:50:28.101Z,33.46
2022-08-19T06:52:54.628Z,33.71
2022-08-19T06:55:21.373Z,34.16
2022-08-19T06:57:47.946Z,34.85
2022-08-19T07:00:14.800Z,35.03
2022-08-19T07:02:48.070Z,35.21
2022-08-19T07:05:19.763Z,35.80
2022-08-19T07:07:47.663Z,36.36
2022-08-19T07:10:14.429Z,36.62
2022-08-19T07:12:41.048Z,36.49
2022-08-19T07:15:08.521Z,36.49
2022-08-19T07:17:35.362Z,35.72
2022-08-19T07:20:05.421Z,35.19
2022-08-19T07:22:40.963Z,35.96
2022-08-19T07:25:09.682Z,35.87
2022-08-19T07:27:37.423Z,36.08
2022-08-19T07:30:07.047Z,36.54
2022-08-19T07:32:37.933Z,36.56
2022-08-19T07:35:04.813Z,36.65
2022-08-19T07:37:33.376Z,35.58
2022-08-19T07:40:01.996Z,35.82
2022-08-19T07:42:28.839Z,35.68
2022-08-19T07:44:55.318Z,35.57
2022-08-19T07:47:58.354Z,35.72
2022-08-19T07:50:11.223Z,35.25
2022-08-19T07:52:38.267Z,34.46
2022-08-19T07:55:06.603Z,33.50
2022-08-19T07:57:53.048Z,34.40
2022-08-19T08:00:23.157Z,33.77
2022-08-19T08:02:51.738Z,32.69
2022-08-19T08:05:19.640Z,31.87
2022-08-19T08:07:46.323Z,31.24
2022-08-19T08:10:21.069Z,31.92
2022-08-19T08:12:58.368Z,32.83
2022-08-19T08:15:38.705Z,33.47
2022-08-19T08:18:08.640Z,34.68
2022-08-19T08:20:35.853Z,35.90
2022-08-19T08:23:02.340Z,37.07
2022-08-19T08:25:28.968Z,37.05
2022-08-19T08:27:59.190Z,36.56
2022-08-19T08:30:27.464Z,34.98
2022-08-19T08:32:59.672Z,32.96
2022-08-19T08:35:26.330Z,33.51
2022-08-19T08:37:55.184Z,32.93
2022-08-19T08:40:40.459Z,32.07
2022-08-19T08:43:35.243Z,32.43
2022-08-19T08:46:17.630Z,33.49
2022-08-19T08:49:12.863Z,35.15
2022-08-19T08:51:47.910Z,36.66
2022-08-19T08:54:20.492Z,36.49
2022-08-19T08:56:50.153Z,36.22
2022-08-19T08:59:37.814Z,36.65
2022-08-19T09:02:04.923Z,37.50
2022-08-19T09:04:31.582Z,38.22
2022-08-19T09:07:03.655Z,38.30
2022-08-19T09:09:52.437Z,38.21
2022-08-19T09:12:50.284Z,35.22
2022-08-19T09:15:22.065Z,32.33
2022-08-19T09:18:04.385Z,32.73
2022-08-19T09:20:33.748Z,32.76
2022-08-19T09:23:00.185Z,32.69
2022-08-19T09:25:29.735Z,34.96
2022-08-19T09:28:02.428Z,35.70
2022-08-19T09:30:32.813Z,36.39
2022-08-19T09:32:59.396Z,36.37
2022-08-19T09:35:28.977Z,37.99
2022-08-19T09:37:57.565Z,38.20
2022-08-19T09:40:30.028Z,38.70
2022-08-19T09:42:57.869Z,38.96
2022-08-19T09:45:24.809Z,38.73
2022-08-19T09:47:54.126Z,36.25
2022-08-19T09:50:22.584Z,32.94
2022-08-19T09:52:55.185Z,31.12
2022-08-19T09:55:31.911Z,29.94
2022-08-19T09:58:00.873Z,29.66
2022-08-19T10:00:27.480Z,30.09
2022-08-19T10:02:53.896Z,33.09
2022-08-19T10:05:23.227Z,35.66
2022-08-19T10:07:53.459Z,37.21
2022-08-19T10:10:20.047Z,36.03
2022-08-19T10:12:46.585Z,33.20
2022-08-19T10:15:15.409Z,31.10
2022-08-19T10:17:47.576Z,31.43
2022-08-19T10:20:21.400Z,30.83
2022-08-19T10:22:47.851Z,31.55
2022-08-19T10:25:22.197Z,34.56
2022-08-19T10:27:51.294Z,34.23
2022-08-19T10:30:18.356Z,31.86
2022-08-19T10:32:47.266Z,33.44
2022-08-19T10:35:21.690Z,35.17
2022-08-19T10:37:56.702Z,36.83
2022-08-19T10:40:24.416Z,36.76
2022-08-19T10:42:51.050Z,36.89
2022-08-19T10:45:17.609Z,37.12
2022-08-19T10:47:44.084Z,35.84
2022-08-19T10:50:12.036Z,34.43
2022-08-19T10:52:49.540Z,32.57
2022-08-19T10:55:18.223Z,30.14
2022-08-19T10:58:01.900Z,30.08
2022-08-19T11:00:29.428Z,29.54
2022-08-19T11:02:55.922Z,29.21
2022-08-19T11:05:22.342Z,29.02
2022-08-19T11:07:51.419Z,28.57
2022-08-19T11:10:21.376Z,28.58
2022-08-19T11:12:48.544Z,28.00
2022-08-19T11:15:15.328Z,27.52
2022-08-19T11:17:42.758Z,27.34
2022-08-19T11:20:10.754Z,26.89
2022-08-19T11:22:41.517Z,26.65
2022-08-19T11:25:10.193Z,26.79
2022-08-19T11:27:42.826Z,26.73
2022-08-19T11:30:12.911Z,27.25
2022-08-19T11:32:48.508Z,27.73
2022-08-19T11:35:16.679Z,27.94
2022-08-19T11:37:43.114Z,27.16
2022-08-19T11:40:10.677Z,26.80
2022-08-19T11:42:37.249Z,26.47
2022-08-19T11:45:04.268Z,26.43
2022-08-19T11:47:31.034Z,26.32
2022-08-19T11:49:57.743Z,26.27
2022-08-19T11:52:24.259Z,26.56
2022-08-19T11:54:50.749Z,26.98
2022-08-19T11:57:17.145Z,27.06
2022-08-19T11:59:49.190Z,27.38
2022-08-19T12:02:15.668Z,27.69
2022-08-19T12:04:42.223Z,29.07
2022-08-19T12:07:08.692Z,29.96
2022-08-19T12:09:35.168Z,30.19
2022-08-19T12:12:01.798Z,29.70
2022-08-19T12:14:28.726Z,29.27
2022-08-19T12:16:55.139Z,28.78
2022-08-19T12:19:22.484Z,28.94
2022-08-19T12:21:49.575Z,28.84
2022-08-19T12:24:16.146Z,28.55
2022-08-19T12:26:52.570Z,28.66
2022-08-19T12:29:23.637Z,28.32
2022-08-19T12:31:50.710Z,28.24
2022-08-19T12:34:17.158Z,28.34
2022-08-19T12:36:43.637Z,28.15
2022-08-19T12:39:10.736Z,28.33
2022-08-19T12:41:50.566Z,27.93
2022-08-19T12:44:21.020Z,27.94
2022-08-19T12:46:55.559Z,28.32
2022-08-19T12:49:52.077Z,28.41
2022-08-19T12:52:09.803Z,27.64
2022-08-19T12:54:38.330Z,27.65
2022-08-19T12:57:08.793Z,27.46
2022-08-19T12:59:36.844Z,27.85
2022-08-19T13:02:08.408Z,27.82
2022-08-19T13:04:35.937Z,27.90
2022-08-19T13:07:02.570Z,28.11
2022-08-19T13:09:29.251Z,27.97
2022-08-19T13:11:55.663Z,27.89
2022-08-19T13:14:22.146Z,27.78
2022-08-19T13:16:48.580Z,27.59
2022-08-19T13:19:15.040Z,27.18
2022-08-19T13:21:41.511Z,26.62
2022-08-19T13:24:09.283Z,26.75
2022-08-19T13:26:35.758Z,26.82
2022-08-19T13:29:02.274Z,27.31
2022-08-19T13:31:32.846Z,27.73
2022-08-19T13:33:59.310Z,27.84
2022-08-19T13:36:26.151Z,27.81
2022-08-19T13:38:52.689Z,27.94
2022-08-19T13:41:19.308Z,27.80
2022-08-19T13:43:45.834Z,28.04
2022-08-19T13:46:13.386Z,27.77
2022-08-19T13:48:39.893Z,27.49
2022-08-19T13:51:06.488Z,27.44
2022-08-19T13:53:32.981Z,27.26
2022-08-19T13:55:59.658Z,27.03
2022-08-19T13:58:26.099Z,26.65
2022-08-19T14:00:52.639Z,26.34
2022-08-19T14:03:19.172Z,26.36
2022-08-19T14:05:45.643Z,26.46
2022-08-19T14:08:12.118Z,26.60
2022-08-19T14:10:38.734Z,26.60
2022-08-19T14:13:05.498Z,27.07
2022-08-19T14:15:32.768Z,27.42
2022-08-19T14:17:59.330Z,27.64
2022-08-19T14:20:26.449Z,27.88
2022-08-19T14:22:54.328Z,28.15
2022-08-19T14:25:27.261Z,28.55
2022-08-19T14:27:54.268Z,28.60
2022-08-19T14:30:24.330Z,28.62
2022-08-19T14:32:50.798Z,28.50
2022-08-19T14:35:17.385Z,28.40
2022-08-19T14:37:45.690Z,28.11
2022-08-19T14:40:15.199Z,27.82
2022-08-19T14:42:42.120Z,27.68
2022-08-19T14:45:10.055Z,27.42
2022-08-19T14:47:36.605Z,27.27
2022-08-19T14:50:18.278Z,26.55
2022-08-19T14:52:46.324Z,26.25
2022-08-19T14:55:12.780Z,26.00
2022-08-19T14:57:41.882Z,26.22
2022-08-19T15:00:09.615Z,26.35
2022-08-19T15:02:36.070Z,26.22
2022-08-19T15:05:03.021Z,26.00
2022-08-19T15:07:30.146Z,26.20
2022-08-19T15:09:57.497Z,26.27
2022-08-19T15:12:24.458Z,26.32
2022-08-19T15:14:50.952Z,26.81
2022-08-19T15:17:19.486Z,26.92
2022-08-19T15:19:46.588Z,27.05
2022-08-19T15:22:13.141Z,27.69
2022-08-19T15:24:48.050Z,27.39
2022-08-19T15:27:14.832Z,27.31
2022-08-19T15:29:42.014Z,27.18
2022-08-19T15:32:08.960Z,27.69
2022-08-19T15:34:35.638Z,27.57
2022-08-19T15:37:02.520Z,27.33
2022-08-19T15:39:29.050Z,27.17
2022-08-19T15:41:55.474Z,26.99
2022-08-19T15:44:22.069Z,26.72
2022-08-19T15:46:49.377Z,26.64
2022-08-19T15:49:18.710Z,27.07
2022-08-19T15:51:47.468Z,27.55
2022-08-19T15:54:17.209Z,27.05
2022-08-19T15:56:44.080Z,27.15
2022-08-19T15:59:11.691Z,27.09
2022-08-19T16:01:40.935Z,27.29
2022-08-19T16:04:13.849Z,27.27
2022-08-19T16:06:45.424Z,27.35
2022-08-19T16:09:11.968Z,27.44
2022-08-19T16:11:39.694Z,27.11
2022-08-19T16:14:07.257Z,26.86
2022-08-19T16:16:35.278Z,26.83
2022-08-19T16:19:05.140Z,26.80
2022-08-19T16:21:31.815Z,26.48
2022-08-19T16:23:59.284Z,25.89
2022-08-19T16:26:27.717Z,26.18
2022-08-19T16:28:55.532Z,26.41
2022-08-19T16:31:22.490Z,26.63
2022-08-19T16:33:49.457Z,26.36
2022-08-19T16:36:15.972Z,26.25
2022-08-19T16:38:45.167Z,26.28
2022-08-19T16:41:12.490Z,25.75
2022-08-19T16:43:38.937Z,25.83
2022-08-19T16:46:05.566Z,25.91
2022-08-19T16:48:32.117Z,25.86
2022-08-19T16:51:00.305Z,26.07
2022-08-19T16:53:29.154Z,25.69
2022-08-19T16:55:59.318Z,25.70
2022-08-19T16:58:27.950Z,25.52
2022-08-19T17:00:59.607Z,25.85
2022-08-19T17:03:36.541Z,25.70
2022-08-19T17:06:15.848Z,25.53
2022-08-19T17:08:48.583Z,25.64
2022-08-19T17:11:18.621Z,25.82
2022-08-19T17:13:48.020Z,25.24
2022-08-19T17:16:16.392Z,24.65
2022-08-19T17:18:42.880Z,24.69
2022-08-19T17:21:09.544Z,24.45
2022-08-19T17:23:42.970Z,24.47
2022-08-19T17:26:16.774Z,24.51
2022-08-19T17:28:49.109Z,24.30
2022-08-19T17:31:16.113Z,24.25
2022-08-19T17:33:42.560Z,24.00
2022-08-19T17:36:15.251Z,23.99
2022-08-19T17:38:41.683Z,23.76
2022-08-19T17:41:08.124Z,23.55
2022-08-19T17:43:41.351Z,23.47
2022-08-19T17:46:11.096Z,23.49
2022-08-19T17:48:37.860Z,23.44
2022-08-19T17:51:15.923Z,23.61
2022-08-19T17:53:42.456Z,23.45
2022-08-19T17:56:09.138Z,23.50
2022-08-19T17:58:35.626Z,23.48
2022-08-19T18:01:03.173Z,23.57
2022-08-19T18:03:30.974Z,23.37
2022-08-19T18:05:57.440Z,23.38
2022-08-19T18:08:24.114Z,23.39
2022-08-19T18:10:50.564Z,23.48
2022-08-19T18:13:17.590Z,23.32
2022-08-19T18:15:45.242Z,23.16
2022-08-19T18:18:15.200Z,23.15
2022-08-19T18:20:42.494Z,23.02
2022-08-19T18:23:43.804Z,23.04
2022-08-19T18:25:55.518Z,22.95
2022-08-19T18:28:21.969Z,22.86
2022-08-19T18:30:48.426Z,22.95
2022-08-19T18:33:15.948Z,23.04
2022-08-19T18:35:45.677Z,22.93
2022-08-19T18:38:14.856Z,22.94
2022-08-19T18:40:41.336Z,22.97
2022-08-19T18:43:09.070Z,22.93
2022-08-19T18:45:35.541Z,22.88
2022-08-19T18:48:01.986Z,22.93
2022-08-19T18:50:29.093Z,22.89
2022-08-19T18:52:55.530Z,22.90
2022-08-19T18:55:21.908Z,22.90
2022-08-19T18:57:48.406Z,22.68
2022-08-19T19:00:18.590Z,22.62
2022-08-19T19:02:45.089Z,22.60
2022-08-19T19:05:14.546Z,22.63
2022-08-19T19:07:41.616Z,22.53
2022-08-19T19:10:08.918Z,22.64
2022-08-19T19:12:39.542Z,22.55
2022-08-19T19:15:06.725Z,22.51
2022-08-19T19:17:33.170Z,22.62
2022-08-19T19:19:59.783Z,22.55
2022-08-19T19:22:26.382Z,22.54
2022-08-19T19:24:53.082Z,22.43
2022-08-19T19:27:20.207Z,22.37
2022-08-19T19:29:51.759Z,22.32
2022-08-19T19:32:28.308Z,22.30
2022-08-19T19:34:55.340Z,22.29
2022-08-19T19:37:21.823Z,22.73
2022-08-19T19:39:49.014Z,22.42
2022-08-19T19:42:19.951Z,22.41
2022-08-19T19:44:52.631Z,22.24
2022-08-19T19:47:19.698Z,22.08
2022-08-19T19:50:12.843Z,21.93
2022-08-19T19:52:37.858Z,21.78
2022-08-19T19:55:05.250Z,21.68
2022-08-19T19:57:31.752Z,21.72
2022-08-19T19:59:58.263Z,21.63
2022-08-19T20:02:24.714Z,21.74
2022-08-19T20:04:51.224Z,21.72
2022-08-19T20:07:17.752Z,21.77
2022-08-19T20:09:59.215Z,21.68
2022-08-19T20:12:26.721Z,22.08
2022-08-19T20:14:53.205Z,22.02
2022-08-19T20:17:19.648Z,21.93
2022-08-19T20:19:46.112Z,21.74
2022-08-19T20:22:12.558Z,21.63
2022-08-19T20:24:39.007Z,21.48
2022-08-19T20:27:05.754Z,21.36
2022-08-19T20:29:39.078Z,21.16
2022-08-19T20:32:09.929Z,21.01
2022-08-19T20:34:36.618Z,20.94
2022-08-19T20:37:03.245Z,20.88
2022-08-19T20:39:29.645Z,20.91
2022-08-19T20:41:56.208Z,20.82
2022-08-19T20:44:22.696Z,20.66
2022-08-19T20:46:54.465Z,20.53
2022-08-19T20:49:27.515Z,20.38
2022-08-19T20:51:57.776Z,20.27
2022-08-19T20:54:24.817Z,20.23
2022-08-19T20:56:51.380Z,20.20
2022-08-19T20:59:17.994Z,20.20
2022-08-19T21:01:44.569Z,20.08
2022-08-19T21:04:11.052Z,19.94
2022-08-19T21:06:37.902Z,19.93
2022-08-19T21:09:05.087Z,19.97
2022-08-19T21:11:31.845Z,20.00
2022-08-19T21:13:59.392Z,19.96
2022-08-19T21:16:26.758Z,19.93
2022-08-19T21:18:53.155Z,19.93
2022-08-19T21:21:19.674Z,19.87
2022-08-19T21:23:49.482Z,19.88
2022-08-19T21:26:16.187Z,19.90
2022-08-19T21:28:42.718Z,19.99
2022-08-19T21:31:09.964Z,19.99
2022-08-19T21:33:37.547Z,20.06
2022-08-19T21:36:05.014Z,20.03
2022-08-19T21:38:31.611Z,19.98
2022-08-19T21:40:58.584Z,19.91
2022-08-19T21:43:25.394Z,19.96
2022-08-19T21:45:51.860Z,19.93
2022-08-19T21:48:19.012Z,19.88
2022-08-19T21:50:48.665Z,19.84
2022-08-19T21:53:19.254Z,19.74
2022-08-19T21:55:53.500Z,19.75
2022-08-19T21:58:28.783Z,19.78
2022-08-19T22:01:01.531Z,19.75
2022-08-19T22:03:28.810Z,19.80
2022-08-19T22:05:58.105Z,19.72
2022-08-19T22:08:25.845Z,19.68
2022-08-19T22:15:47.330Z,19.78
2022-08-19T22:18:13.849Z,19.68
2022-08-19T22:20:40.503Z,19.71
2022-08-19T22:23:07.404Z,19.72
2022-08-19T22:25:40.069Z,19.64
2022-08-19T22:28:10.963Z,19.67
2022-08-19T22:30:41.168Z,19.59
2022-08-19T22:33:11.393Z,19.61
2022-08-19T22:35:39.779Z,19.67
2022-08-19T22:38:07.609Z,19.70
2022-08-19T22:43:06.641Z,19.68
2022-08-19T22:45:35.180Z,19.70
2022-08-19T22:48:02.914Z,19.77
2022-08-19T22:50:29.497Z,19.81
2022-08-19T22:53:00.479Z,19.80
2022-08-19T22:55:28.284Z,19.87
2022-08-19T22:57:55.618Z,19.96
2022-08-19T23:00:24.615Z,19.93
2022-08-19T23:02:52.276Z,19.90
2022-08-19T23:05:22.174Z,20.00
2022-08-19T23:07:52.107Z,19.99
2022-08-19T23:10:27.276Z,19.95
2022-08-19T23:12:57.463Z,20.01
2022-08-19T23:15:26.576Z,19.96
2022-08-19T23:17:55.446Z,19.99
2022-08-19T23:20:23.542Z,19.94
2022-08-19T23:22:49.997Z,19.86
2022-08-19T23:25:21.283Z,19.91
2022-08-19T23:27:48.822Z,19.84
2022-08-19T23:30:15.327Z,19.69
2022-08-19T23:32:41.783Z,19.53
2022-08-19T23:35:08.605Z,19.53
2022-08-19T23:37:37.157Z,19.48
2022-08-19T23:40:06.398Z,19.50
2022-08-19T23:42:33.123Z,19.52
2022-08-19T23:45:01.965Z,19.39
2022-08-19T23:47:30.329Z,19.43
2022-08-19T23:49:56.789Z,19.36
2022-08-19T23:52:23.297Z,19.37
2022-08-19T23:54:49.817Z,19.33
2022-08-19T23:57:16.350Z,19.30
2022-08-19T23:59:43.409Z,19.39
